Time;durP1;ratioP1;P1;durP2;ratioP2;P2;SDS_P1;SDS_P2;PMS_P1;PMS_P2;Temp;Humidity;BMP_temperature;BMP_pressure;BME280_temperature;BME280_humidity;BME280_pressure;Samples;Min_cycle;Max_cycle;Signal;HPM_P1;HPM_P2
2023/08/19 00:00:50;;;;;;;5.90;3.08;;;;;;;24.28;74.72;99266.88;5110001;28;20198;-59
2023/08/19 00:03:17;;;;;;;3.70;3.10;;;;;;;24.25;74.60;99257.63;5109598;28;20194;-59
2023/08/19 00:05:43;;;;;;;4.43;2.85;;;;;;;24.25;74.19;99260.25;5109012;28;20677;-59
2023/08/19 00:08:10;;;;;;;5.43;3.20;;;;;;;24.23;74.34;99249.19;5110100;28;20205;-59
2023/08/19 00:10:38;;;;;;;4.65;3.08;;;;;;;24.15;74.95;99258.00;5110036;28;20189;-59
2023/08/19 00:13:05;;;;;;;4.55;3.10;;;;;;;24.11;75.40;99264.59;5108970;28;20586;-59
2023/08/19 00:15:32;;;;;;;5.72;3.05;;;;;;;24.05;75.28;99260.16;5109186;28;20759;-59
2023/08/19 00:18:00;;;;;;;4.35;3.25;;;;;;;24.02;76.53;99264.97;5109906;28;20198;-59
2023/08/19 00:20:28;;;;;;;4.50;3.17;;;;;;;24.05;76.45;99262.75;5109251;28;20197;-59
2023/08/19 00:22:56;;;;;;;4.80;3.10;;;;;;;23.97;76.35;99257.72;5108912;28;20701;-59
2023/08/19 00:25:22;;;;;;;6.45;3.50;;;;;;;23.93;76.66;99264.31;5109626;28;20217;-59
2023/08/19 00:27:51;;;;;;;4.28;3.25;;;;;;;23.92;77.21;99247.84;5108762;28;20201;-59
2023/08/19 00:30:18;;;;;;;3.67;3.08;;;;;;;23.87;78.05;99255.44;5108011;28;20197;-59
2023/08/19 00:32:45;;;;;;;5.95;3.38;;;;;;;23.86;76.84;99259.06;5108287;28;20198;-59
2023/08/19 00:35:12;;;;;;;4.97;3.00;;;;;;;23.80;76.75;99259.03;5108812;28;20289;-59
2023/08/19 00:37:39;;;;;;;5.47;3.00;;;;;;;23.77;76.68;99267.25;5109603;28;20205;-59
2023/08/19 00:40:09;;;;;;;4.82;3.33;;;;;;;23.73;76.44;99266.81;5109372;28;20193;-59
2023/08/19 00:42:36;;;;;;;5.20;3.17;;;;;;;23.68;76.52;99267.38;5108546;28;20201;-59
2023/08/19 00:45:05;;;;;;;4.80;3.08;;;;;;;23.67;76.76;99259.72;5108985;28;20193;-59
2023/08/19 00:47:31;;;;;;;4.30;3.00;;;;;;;23.67;76.70;99270.16;5109455;28;20198;-59
2023/08/19 00:49:58;;;;;;;4.35;3.13;;;;;;;23.67;75.56;99264.94;5108386;28;20232;-59
2023/08/19 00:52:25;;;;;;;3.78;3.08;;;;;;;23.63;76.45;99264.50;5108653;28;20210;-59
2023/08/19 00:54:53;;;;;;;3.90;3.15;;;;;;;23.64;76.26;99265.31;5108984;28;20291;-60
2023/08/19 00:57:19;;;;;;;3.40;2.80;;;;;;;23.62;76.93;99265.53;5108231;28;20275;-59
2023/08/19 00:59:46;;;;;;;4.00;3.00;;;;;;;23.56;78.11;99268.91;5108221;28;20623;-59
2023/08/19 01:02:15;;;;;;;5.32;2.70;;;;;;;23.53;78.13;99264.03;5108847;28;20589;-59
2023/08/19 01:04:42;;;;;;;4.18;3.30;;;;;;;23.46;78.20;99265.81;5108703;28;20674;-59
2023/08/19 01:07:15;;;;;;;4.60;3.30;;;;;;;23.43;77.37;99266.19;5107982;28;20201;-59
2023/08/19 01:09:49;;;;;;;5.63;3.20;;;;;;;23.38;77.30;99261.53;5108687;28;20205;-59
2023/08/19 01:12:24;;;;;;;3.95;3.03;;;;;;;23.34;77.35;99259.50;5108715;28;20203;-59
2023/08/19 01:15:07;;;;;;;4.43;2.92;;;;;;;23.30;77.65;99259.06;5107907;28;20224;-59
2023/08/19 01:17:36;;;;;;;5.00;3.20;;;;;;;23.29;77.84;99262.66;5108471;28;20209;-59
2023/08/19 01:20:05;;;;;;;6.15;3.10;;;;;;;23.26;77.69;99268.25;5108522;28;20219;-59
2023/08/19 01:22:49;;;;;;;5.78;3.40;;;;;;;23.18;77.58;99269.19;5107904;28;20612;-59
2023/08/19 01:25:18;;;;;;;3.35;2.70;;;;;;;23.16;77.86;99268.59;5108722;28;20734;-59
2023/08/19 01:27:45;;;;;;;3.50;2.72;;;;;;;23.07;78.05;99267.09;5108333;28;20202;-59
2023/08/19 01:30:14;;;;;;;4.97;3.15;;;;;;;23.10;78.37;99264.13;5107879;28;20620;-59
2023/08/19 01:32:41;;;;;;;4.13;2.83;;;;;;;23.07;78.55;99258.44;5108132;28;20734;-59
2023/08/19 01:35:09;;;;;;;4.90;3.35;;;;;;;23.01;79.55;99265.25;5108611;28;20577;-59
2023/08/19 01:37:41;;;;;;;3.92;2.83;;;;;;;22.96;79.97;99263.19;5108094;28;20209;-59
2023/08/19 01:40:13;;;;;;;5.18;3.25;;;;;;;22.96;79.98;99260.56;5108190;28;20220;-59
2023/08/19 01:42:42;;;;;;;3.97;2.95;;;;;;;22.95;79.78;99260.75;5108549;28;20211;-59
2023/08/19 01:45:10;;;;;;;5.03;3.10;;;;;;;22.91;79.68;99255.06;5108502;28;20193;-59
2023/08/19 01:47:38;;;;;;;3.85;2.85;;;;;;;22.85;80.24;99255.81;5107619;28;20205;-59
2023/08/19 01:50:06;;;;;;;4.13;2.78;;;;;;;22.83;80.11;99263.84;5108553;28;20193;-59
2023/08/19 01:52:33;;;;;;;5.18;3.25;;;;;;;22.80;80.83;99263.38;5108122;28;20409;-59
2023/08/19 01:55:01;;;;;;;4.32;3.05;;;;;;;22.78;80.77;99260.97;5107322;28;20896;-59
2023/08/19 01:57:28;;;;;;;6.28;3.08;;;;;;;22.76;81.26;99260.34;5107855;28;20229;-58
2023/08/19 01:59:56;;;;;;;5.85;3.22;;;;;;;22.79;81.01;99262.59;5109405;28;20253;-59
2023/08/19 02:02:23;;;;;;;5.47;3.22;;;;;;;22.76;80.89;99264.75;5111720;28;20205;-59
2023/08/19 02:04:50;;;;;;;4.53;3.05;;;;;;;22.70;81.65;99258.50;5112029;28;20193;-59
2023/08/19 02:07:17;;;;;;;4.30;2.97;;;;;;;22.67;82.17;99266.69;5112099;28;20197;-59
2023/08/19 02:09:45;;;;;;;3.97;2.88;;;;;;;22.59;82.34;99267.59;5111685;28;20193;-59
2023/08/19 02:12:12;;;;;;;4.43;2.92;;;;;;;22.55;83.06;99278.56;5111707;28;20197;-59
2023/08/19 02:14:39;;;;;;;5.18;3.38;;;;;;;22.56;83.20;99277.56;5112120;28;20201;-59
2023/08/19 02:17:07;;;;;;;3.95;3.10;;;;;;;22.49;83.85;99281.91;5112289;28;20240;-59
2023/08/19 02:19:35;;;;;;;3.95;3.08;;;;;;;22.47;84.04;99273.47;5111257;28;20198;-59
2023/08/19 02:22:02;;;;;;;4.53;2.95;;;;;;;22.41;84.29;99279.41;5112076;28;20209;-59
2023/08/19 02:24:29;;;;;;;8.45;3.10;;;;;;;22.36;84.72;99272.13;5112133;28;20209;-59
2023/08/19 02:26:56;;;;;;;5.10;3.35;;;;;;;22.36;84.94;99279.94;5110955;28;20201;-59
2023/08/19 02:29:23;;;;;;;4.47;3.25;;;;;;;22.32;85.12;99287.31;5111419;28;20208;-59
2023/08/19 02:31:50;;;;;;;4.80;3.53;;;;;;;22.30;85.47;99284.09;5111673;28;20644;-59
2023/08/19 02:34:18;;;;;;;3.95;3.30;;;;;;;22.24;86.06;99290.03;5111138;28;20193;-59
2023/08/19 02:36:45;;;;;;;4.13;3.20;;;;;;;22.20;86.48;99287.97;5111112;28;20237;-59
2023/08/19 02:39:12;;;;;;;5.03;3.25;;;;;;;22.12;86.45;99281.03;5111577;28;20200;-59
2023/08/19 02:41:39;;;;;;;8.38;3.65;;;;;;;22.07;87.56;99283.34;5111476;28;20510;-59
2023/08/19 02:44:06;;;;;;;5.80;3.57;;;;;;;22.10;87.39;99288.19;5110632;28;20407;-59
2023/08/19 02:46:32;;;;;;;3.53;3.00;;;;;;;22.09;87.28;99297.81;5111808;28;20228;-59
2023/08/19 02:48:59;;;;;;;3.70;3.30;;;;;;;22.06;88.39;99299.97;5111406;28;20209;-59
2023/08/19 02:51:27;;;;;;;5.40;3.88;;;;;;;22.00;88.72;99298.91;5110580;28;20194;-59
2023/08/19 02:53:54;;;;;;;6.15;3.53;;;;;;;21.95;89.39;99300.41;5111223;28;20205;-59
2023/08/19 02:56:21;;;;;;;4.68;3.35;;;;;;;21.97;88.70;99308.88;5111518;28;20616;-58
2023/08/19 02:58:48;;;;;;;5.07;3.80;;;;;;;21.92;89.64;99305.00;5110796;28;20193;-59
2023/08/19 03:01:15;;;;;;;5.13;3.45;;;;;;;21.88;88.97;99306.34;5110913;28;20206;-59
2023/08/19 03:03:41;;;;;;;5.40;3.70;;;;;;;21.81;89.70;99310.63;5111529;28;20189;-59
2023/08/19 03:06:08;;;;;;;4.73;3.80;;;;;;;21.71;90.02;99312.69;5111011;28;20741;-59
2023/08/19 03:08:36;;;;;;;4.57;3.50;;;;;;;21.72;90.00;99316.91;5110786;28;20193;-59
2023/08/19 03:11:03;;;;;;;5.63;3.53;;;;;;;21.72;90.57;99321.31;5110102;28;20220;-59
2023/08/19 03:13:30;;;;;;;5.37;3.80;;;;;;;21.69;89.96;99317.25;5110645;28;20203;-59
2023/08/19 03:16:00;;;;;;;5.75;3.92;;;;;;;21.66;89.98;99315.81;5110147;28;20281;-59
2023/08/19 03:18:27;;;;;;;5.80;3.90;;;;;;;21.65;90.19;99321.22;5111223;28;20247;-59
2023/08/19 03:20:57;;;;;;;6.50;4.23;;;;;;;21.61;90.69;99319.94;5111076;28;20193;-59
2023/08/19 03:23:26;;;;;;;7.20;4.13;;;;;;;21.55;90.80;99318.03;5110169;28;20556;-59
2023/08/19 03:25:55;;;;;;;9.30;4.07;;;;;;;21.57;91.13;99323.88;5110659;28;20273;-59
2023/08/19 03:28:22;;;;;;;4.80;3.60;;;;;;;21.53;91.07;99322.63;5110531;28;20698;-59
2023/08/19 03:30:49;;;;;;;5.30;3.80;;;;;;;21.54;91.65;99326.84;5110229;27;20685;-59
2023/08/19 03:33:16;;;;;;;5.83;4.07;;;;;;;21.54;91.84;99329.44;5110261;28;20657;-59
2023/08/19 03:35:42;;;;;;;5.77;3.70;;;;;;;21.46;91.73;99318.09;5110751;28;20204;-59
2023/08/19 03:38:09;;;;;;;5.97;4.70;;;;;;;21.42;92.08;99316.84;5109957;28;20243;-59
2023/08/19 03:40:37;;;;;;;5.33;4.27;;;;;;;21.37;93.00;99319.16;5109960;28;20273;-59
2023/08/19 03:43:05;;;;;;;6.67;4.37;;;;;;;21.39;92.45;99301.59;5110352;28;20200;-59
2023/08/19 03:45:34;;;;;;;6.07;3.97;;;;;;;21.38;92.79;99304.34;5110172;28;20212;-59
2023/08/19 03:48:01;;;;;;;6.73;4.40;;;;;;;21.32;93.47;99294.63;5109388;28;20204;-60
2023/08/19 03:50:28;;;;;;;7.47;4.63;;;;;;;21.24;94.76;99303.31;5110158;28;20195;-59
2023/08/19 03:52:55;;;;;;;8.80;4.20;;;;;;;21.22;95.11;99305.28;5110023;28;20732;-59
2023/08/19 03:55:22;;;;;;;5.93;4.27;;;;;;;21.21;94.58;99308.84;5109808;28;20200;-59
2023/08/19 03:57:51;;;;;;;5.80;4.47;;;;;;;21.16;94.55;99304.16;5109810;28;20236;-59
2023/08/19 04:00:19;;;;;;;6.60;4.70;;;;;;;21.15;93.42;99304.34;5110343;28;20284;-59
2023/08/19 04:02:46;;;;;;;8.40;4.27;;;;;;;21.14;92.74;99302.72;5109472;28;20584;-59
2023/08/19 04:05:13;;;;;;;7.50;4.60;;;;;;;21.14;91.83;99307.91;5109756;28;20212;-58
2023/08/19 04:07:40;;;;;;;6.27;4.40;;;;;;;21.06;92.12;99300.16;5110214;28;20207;-59
2023/08/19 04:10:08;;;;;;;10.20;4.47;;;;;;;21.12;91.67;99284.72;5110289;28;20207;-59
2023/08/19 04:12:35;;;;;;;6.43;4.53;;;;;;;21.12;91.28;99291.69;5109067;28;20214;-59
2023/08/19 04:15:02;;;;;;;9.07;5.77;;;;;;;21.06;91.92;99294.97;5109838;28;20500;-59
2023/08/19 04:17:30;;;;;;;25.80;12.57;;;;;;;21.09;91.88;99294.63;5109484;28;20232;-59
2023/08/19 04:19:57;;;;;;;22.40;12.13;;;;;;;21.11;92.20;99288.28;5108622;28;20201;-59
2023/08/19 04:22:24;;;;;;;48.30;20.13;;;;;;;21.13;92.49;99280.31;5108923;28;20669;-59
2023/08/19 04:24:52;;;;;;;115.20;41.03;;;;;;;21.17;92.85;99261.56;5109934;28;20211;-59
2023/08/19 04:27:19;;;;;;;265.23;89.83;;;;;;;21.16;92.66;99257.38;5109036;28;20192;-59
2023/08/19 04:29:46;;;;;;;128.53;48.50;;;;;;;21.15;92.64;99253.16;5109356;28;20208;-59
2023/08/19 04:32:13;;;;;;;141.13;57.53;;;;;;;21.14;92.79;99250.72;5109762;28;20683;-59
2023/08/19 04:34:41;;;;;;;269.60;100.97;;;;;;;21.13;92.99;99255.13;5109553;28;20202;-59
2023/08/19 04:37:09;;;;;;;89.40;35.03;;;;;;;21.13;93.18;99254.31;5109254;28;20230;-59
2023/08/19 04:39:36;;;;;;;162.63;56.03;;;;;;;21.12;93.49;99257.88;5109417;28;20206;-59
2023/08/19 04:42:03;;;;;;;114.87;42.93;;;;;;;21.14;94.10;99266.31;5109650;28;20209;-59
2023/08/19 04:44:30;;;;;;;106.57;38.27;;;;;;;21.11;93.96;99271.88;5108935;28;20212;-59
2023/08/19 04:46:57;;;;;;;29.47;13.43;;;;;;;21.17;93.51;99291.97;5108905;28;20206;-59
2023/08/19 04:49:24;;;;;;;28.33;12.87;;;;;;;21.21;93.62;99296.66;5109097;28;20608;-59
2023/08/19 04:51:52;;;;;;;72.40;30.00;;;;;;;21.27;93.48;99289.16;5109122;28;20208;-59
2023/08/19 04:54:19;;;;;;;27.37;12.43;;;;;;;21.29;93.96;99308.78;5108976;28;20199;-59
2023/08/19 04:56:45;;;;;;;15.50;8.40;;;;;;;21.32;94.64;99311.06;5108603;28;20627;-58
2023/08/19 04:59:13;;;;;;;26.17;12.30;;;;;;;21.35;94.12;99308.09;5108970;28;20680;-58
2023/08/19 05:01:39;;;;;;;27.13;13.57;;;;;;;21.47;94.29;99309.31;5108976;28;20694;-59
2023/08/19 05:04:07;;;;;;;19.03;8.90;;;;;;;21.55;94.04;99310.22;5108960;28;20203;-60
2023/08/19 05:06:33;;;;;;;9.73;5.27;;;;;;;21.62;93.32;99321.56;5108913;28;20495;-59
2023/08/19 05:09:03;;;;;;;7.40;4.70;;;;;;;21.70;94.09;99334.50;5108723;28;20682;-59
2023/08/19 05:11:30;;;;;;;5.57;3.77;;;;;;;21.81;94.20;99334.06;5108793;28;20292;-59
2023/08/19 05:13:57;;;;;;;9.70;4.40;;;;;;;21.90;92.75;99335.63;5108472;28;20208;-59
2023/08/19 05:16:24;;;;;;;7.87;4.10;;;;;;;21.95;92.62;99331.66;5108348;28;20716;-59
2023/08/19 05:19:03;;;;;;;5.63;4.03;;;;;;;21.96;93.25;99330.66;5108606;28;20204;-59
2023/08/19 05:21:30;;;;;;;6.03;4.20;;;;;;;21.96;91.44;99341.88;5108563;28;20205;-59
2023/08/19 05:23:57;;;;;;;7.13;4.35;;;;;;;22.00;92.89;99350.97;5108447;28;20212;-59
2023/08/19 05:26:25;;;;;;;8.20;4.57;;;;;;;22.05;91.74;99359.06;5108542;28;20608;-59
2023/08/19 05:28:52;;;;;;;6.93;4.27;;;;;;;22.09;93.03;99360.31;5108334;28;20201;-60
2023/08/19 05:31:19;;;;;;;47.83;18.48;;;;;;;22.16;92.55;99363.00;5108005;28;20197;-59
2023/08/19 05:33:46;;;;;;;33.17;14.75;;;;;;;22.21;91.67;99367.72;5108019;28;20682;-59
2023/08/19 05:36:13;;;;;;;27.10;12.88;;;;;;;22.25;92.24;99369.81;5108079;28;20200;-59
2023/08/19 05:38:39;;;;;;;11.43;6.63;;;;;;;22.31;92.40;99369.06;5108027;28;20225;-59
2023/08/19 05:41:06;;;;;;;9.00;5.53;;;;;;;22.36;94.41;99366.72;5108717;28;20220;-59
2023/08/19 05:43:34;;;;;;;16.17;7.03;;;;;;;22.47;93.11;99362.06;5108497;28;20221;-59
2023/08/19 05:46:04;;;;;;;19.30;7.05;;;;;;;22.71;91.31;99369.56;5108031;28;20205;-60
2023/08/19 05:48:31;;;;;;;11.73;5.85;;;;;;;22.96;91.48;99366.69;5108345;28;20209;-59
2023/08/19 05:50:58;;;;;;;12.60;5.93;;;;;;;23.06;89.60;99372.41;5108240;28;20587;-60
2023/08/19 05:53:25;;;;;;;5.85;4.07;;;;;;;23.19;88.92;99371.75;5108036;28;20204;-59
2023/08/19 05:55:52;;;;;;;11.93;5.75;;;;;;;23.34;88.27;99372.50;5108135;28;20206;-59
2023/08/19 05:58:19;;;;;;;11.43;5.15;;;;;;;23.41;86.04;99378.56;5108241;28;20229;-59
2023/08/19 06:00:47;;;;;;;6.70;3.88;;;;;;;23.35;85.74;99375.91;5108330;28;20204;-59
2023/08/19 06:03:14;;;;;;;4.32;3.58;;;;;;;23.57;86.05;99369.69;5108094;28;20204;-60
2023/08/19 06:05:41;;;;;;;5.15;3.80;;;;;;;23.89;82.24;99368.34;5108376;28;20193;-59
2023/08/19 06:08:08;;;;;;;7.10;4.63;;;;;;;23.99;82.38;99367.22;5108214;28;20201;-60
2023/08/19 06:10:35;;;;;;;4.50;3.17;;;;;;;24.06;81.08;99373.31;5107935;28;20197;-60
2023/08/19 06:13:02;;;;;;;5.15;3.30;;;;;;;24.07;80.08;99367.88;5108265;28;20202;-60
2023/08/19 06:15:29;;;;;;;5.10;3.80;;;;;;;24.24;81.47;99370.19;5107951;28;20686;-60
2023/08/19 06:17:57;;;;;;;6.25;4.35;;;;;;;24.36;80.90;99369.44;5107850;28;20714;-60
2023/08/19 06:20:24;;;;;;;7.28;3.75;;;;;;;24.44;78.97;99376.38;5107909;28;20197;-60
2023/08/19 06:22:51;;;;;;;5.15;3.53;;;;;;;24.53;80.29;99375.19;5107529;28;20476;-60
2023/08/19 06:25:18;;;;;;;5.15;3.53;;;;;;;24.85;82.59;99386.00;5107795;28;20588;-60
2023/08/19 06:27:44;;;;;;;5.75;3.47;;;;;;;25.20;76.79;99391.16;5107796;28;20205;-60
2023/08/19 06:30:13;;;;;;;5.78;3.67;;;;;;;25.55;77.06;99385.75;5107922;28;20212;-60
2023/08/19 06:32:40;;;;;;;5.13;3.45;;;;;;;25.76;72.02;99380.31;5108010;28;20216;-60
2023/08/19 06:35:10;;;;;;;3.83;2.95;;;;;;;26.11;76.78;99387.97;5107854;28;20198;-60
2023/08/19 06:37:41;;;;;;;4.43;3.40;;;;;;;26.36;74.97;99381.06;5106477;28;20229;-60
2023/08/19 06:40:13;;;;;;;7.70;4.78;;;;;;;26.78;79.31;99378.09;5107265;28;20225;-60
2023/08/19 06:42:41;;;;;;;5.78;3.38;;;;;;;27.12;71.05;99386.63;5107507;28;20761;-60
2023/08/19 06:45:10;;;;;;;4.80;3.40;;;;;;;27.19;66.42;99390.81;5107607;28;20210;-60
2023/08/19 06:47:38;;;;;;;5.93;3.53;;;;;;;27.04;66.81;99392.91;5111789;28;20247;-61
2023/08/19 06:50:06;;;;;;;5.03;3.33;;;;;;;26.94;67.78;99410.94;5111384;28;20201;-60
2023/08/19 06:52:35;;;;;;;4.13;3.13;;;;;;;26.85;66.05;99416.41;5111218;28;20197;-60
2023/08/19 06:55:04;;;;;;;5.45;3.22;;;;;;;26.69;67.58;99421.31;5111232;28;20198;-60
2023/08/19 06:57:37;;;;;;;7.13;3.38;;;;;;;26.59;69.21;99421.78;5111100;28;20302;-60
2023/08/19 07:00:08;;;;;;;4.40;3.35;;;;;;;26.41;70.41;99417.97;5111224;28;20300;-60
2023/08/19 07:02:37;;;;;;;4.95;3.30;;;;;;;26.25;69.18;99425.44;5111316;28;20204;-60
2023/08/19 07:05:11;;;;;;;4.18;3.25;;;;;;;26.21;72.54;99432.91;5111374;28;20200;-60
2023/08/19 07:07:40;;;;;;;4.05;3.53;;;;;;;26.11;71.45;99437.75;5111179;28;20204;-60
2023/08/19 07:10:09;;;;;;;3.42;3.00;;;;;;;26.04;72.84;99426.50;5111345;28;20201;-60
2023/08/19 07:12:36;;;;;;;7.07;3.83;;;;;;;26.06;74.77;99422.63;5111245;28;20201;-60
2023/08/19 07:15:07;;;;;;;9.95;3.55;;;;;;;26.03;73.32;99417.00;5111276;28;20537;-60
2023/08/19 07:17:35;;;;;;;5.03;3.42;;;;;;;26.12;77.65;99426.25;5110834;28;20268;-60
2023/08/19 07:20:05;;;;;;;7.07;3.33;;;;;;;26.19;75.64;99427.88;5110917;28;20701;-60
2023/08/19 07:22:34;;;;;;;4.82;3.25;;;;;;;26.50;76.14;99428.22;5110621;28;20208;-60
2023/08/19 07:25:03;;;;;;;4.95;3.33;;;;;;;26.74;72.91;99429.38;5110597;28;20213;-60
2023/08/19 07:27:31;;;;;;;5.03;3.40;;;;;;;26.71;70.77;99430.59;5110574;28;20266;-61
2023/08/19 07:30:00;;;;;;;5.97;3.25;;;;;;;26.68;70.97;99419.72;5110574;28;20742;-60
2023/08/19 07:32:28;;;;;;;5.82;3.20;;;;;;;26.62;74.21;99423.97;5110655;28;20263;-60
2023/08/19 07:34:55;;;;;;;4.50;2.95;;;;;;;26.66;74.67;99422.53;5110662;28;20248;-60
2023/08/19 07:37:22;;;;;;;6.03;3.60;;;;;;;26.77;73.04;99424.53;5110347;28;20205;-60
2023/08/19 07:39:49;;;;;;;4.53;3.05;;;;;;;26.78;71.45;99425.31;5110368;28;20198;-61
2023/08/19 07:42:17;;;;;;;5.70;3.50;;;;;;;26.90;71.27;99418.41;5110462;28;20198;-60
2023/08/19 07:44:44;;;;;;;7.43;3.42;;;;;;;27.03;74.32;99422.81;5110387;28;20201;-60
2023/08/19 07:47:10;;;;;;;4.63;3.15;;;;;;;27.35;77.83;99425.47;5110355;27;20202;-61
2023/08/19 07:49:39;;;;;;;6.03;3.30;;;;;;;27.59;71.82;99432.59;5110170;28;20205;-61
2023/08/19 07:52:06;;;;;;;4.38;3.03;;;;;;;27.56;69.17;99437.47;5110646;28;20197;-61
2023/08/19 07:54:32;;;;;;;6.47;3.28;;;;;;;27.46;68.66;99435.28;5110206;28;20589;-60
2023/08/19 07:57:00;;;;;;;4.20;2.88;;;;;;;27.57;72.71;99431.19;5109712;28;20288;-60
2023/08/19 07:59:28;;;;;;;4.40;3.17;;;;;;;27.97;75.71;99435.13;5109718;28;20240;-61
2023/08/19 08:01:55;;;;;;;5.68;3.53;;;;;;;28.09;66.54;99432.59;5110232;28;20210;-61
2023/08/19 08:04:22;;;;;;;6.47;3.05;;;;;;;28.29;65.96;99431.63;5110281;28;20425;-61
2023/08/19 08:06:49;;;;;;;5.07;3.53;;;;;;;28.53;67.61;99422.88;5109768;28;20259;-61
2023/08/19 08:09:16;;;;;;;8.50;4.03;;;;;;;28.54;65.11;99411.34;5109740;28;20209;-61
2023/08/19 08:11:45;;;;;;;6.07;3.60;;;;;;;28.59;65.87;99419.34;5109963;28;20216;-61
2023/08/19 08:14:12;;;;;;;4.80;3.17;;;;;;;28.87;67.88;99424.09;5109789;28;20197;-61
2023/08/19 08:16:41;;;;;;;4.28;3.10;;;;;;;29.03;66.80;99417.44;5109957;28;20288;-61
2023/08/19 08:19:07;;;;;;;4.95;3.15;;;;;;;29.27;65.91;99422.78;5109604;28;20266;-61
2023/08/19 08:21:34;;;;;;;4.72;3.30;;;;;;;29.53;64.24;99417.13;5109825;28;20216;-61
2023/08/19 08:24:03;;;;;;;5.28;3.08;;;;;;;29.82;60.97;99419.13;5109785;28;20220;-61
2023/08/19 08:26:30;;;;;;;3.92;3.15;;;;;;;30.02;68.02;99414.34;5109627;28;20193;-61
2023/08/19 08:28:57;;;;;;;5.43;3.35;;;;;;;30.10;58.00;99415.81;5109006;28;20197;-61
2023/08/19 08:31:23;;;;;;;4.00;2.83;;;;;;;30.24;55.66;99422.47;5109363;28;20193;-61
2023/08/19 08:33:52;;;;;;;5.40;3.47;;;;;;;30.35;60.62;99418.22;5109295;28;20202;-61
2023/08/19 08:36:18;;;;;;;3.75;3.20;;;;;;;30.64;61.68;99427.00;5109344;28;20290;-61
2023/08/19 08:38:45;;;;;;;6.07;3.22;;;;;;;30.81;57.22;99416.53;5109034;27;20719;-61
2023/08/19 08:41:13;;;;;;;5.72;3.50;;;;;;;31.02;56.89;99417.72;5109724;28;20516;-62
2023/08/19 08:43:40;;;;;;;4.20;3.28;;;;;;;31.31;63.63;99419.28;5109537;28;20213;-61
2023/08/19 08:46:07;;;;;;;7.78;4.00;;;;;;;31.50;55.86;99421.72;5109074;28;20197;-61
2023/08/19 08:48:36;;;;;;;5.80;3.38;;;;;;;31.48;52.47;99426.47;5109147;28;20193;-61
2023/08/19 08:51:05;;;;;;;5.55;3.17;;;;;;;31.45;52.92;99421.66;5109003;28;20209;-61
2023/08/19 08:53:34;;;;;;;5.25;3.60;;;;;;;31.63;53.60;99413.50;5108875;28;20194;-61
2023/08/19 08:56:02;;;;;;;4.65;3.35;;;;;;;31.80;53.27;99419.56;5108955;28;20522;-62
2023/08/19 08:58:29;;;;;;;4.03;3.25;;;;;;;31.96;53.78;99406.59;5108965;27;20291;-61
2023/08/19 09:00:56;;;;;;;4.47;3.25;;;;;;;32.19;51.39;99416.16;5108964;28;20197;-62
2023/08/19 09:03:26;;;;;;;5.28;3.40;;;;;;;32.10;49.28;99402.56;5108789;27;20208;-62
2023/08/19 09:05:59;;;;;;;6.20;2.97;;;;;;;32.20;49.96;99408.00;5108998;28;20212;-61
2023/08/19 09:08:34;;;;;;;3.65;2.90;;;;;;;32.27;47.44;99409.66;5108691;28;20201;-62
2023/08/19 09:11:03;;;;;;;3.33;2.72;;;;;;;32.43;46.48;99406.13;5108145;28;20201;-61
2023/08/19 09:13:32;;;;;;;3.53;2.72;;;;;;;32.60;46.54;99404.25;5108482;28;20288;-61
2023/08/19 09:15:59;;;;;;;3.63;2.85;;;;;;;32.69;46.71;99399.31;5108983;28;20314;-61
2023/08/19 09:18:27;;;;;;;5.13;2.97;;;;;;;32.79;49.51;99396.00;5108374;28;20232;-61
2023/08/19 09:20:54;;;;;;;4.88;3.08;;;;;;;33.06;45.03;99399.47;5108876;28;20204;-62
2023/08/19 09:23:21;;;;;;;4.13;2.80;;;;;;;33.27;45.19;99394.34;5108727;28;20591;-62
2023/08/19 09:25:50;;;;;;;3.97;2.70;;;;;;;33.35;44.81;99391.25;5108212;28;20193;-62
2023/08/19 09:28:17;;;;;;;4.00;3.05;;;;;;;33.43;43.85;99382.81;5106767;28;20579;-59
2023/08/19 09:30:44;;;;;;;3.30;2.80;;;;;;;33.53;42.88;99388.22;5108178;28;20202;-59
2023/08/19 09:33:18;;;;;;;3.90;2.97;;;;;;;33.45;39.17;99380.69;5108577;28;20674;-60
2023/08/19 09:35:45;;;;;;;3.20;2.45;;;;;;;33.55;40.68;99393.28;5108239;28;20190;-61
2023/08/19 09:38:20;;;;;;;3.83;2.95;;;;;;;33.29;41.67;99387.75;5108221;28;20736;-61
2023/08/19 09:40:59;;;;;;;4.75;3.20;;;;;;;33.27;40.78;99389.84;5108455;28;20222;-62
2023/08/19 09:43:27;;;;;;;3.25;2.80;;;;;;;33.07;41.97;99379.84;5108574;28;20239;-61
2023/08/19 09:45:57;;;;;;;6.68;2.60;;;;;;;33.12;41.88;99382.56;5107945;28;20202;-61
2023/08/19 09:48:24;;;;;;;3.65;2.70;;;;;;;33.39;42.33;99379.06;5108263;28;20259;-62
2023/08/19 09:50:51;;;;;;;3.40;2.70;;;;;;;33.70;45.77;99376.66;5108335;28;20197;-62
2023/08/19 09:53:19;;;;;;;4.13;2.90;;;;;;;33.92;41.84;99384.47;5108410;28;20214;-60
2023/08/19 09:55:46;;;;;;;2.67;2.47;;;;;;;33.92;41.71;99385.31;5108098;28;20262;-60
2023/08/19 09:58:15;;;;;;;3.20;2.65;;;;;;;33.79;39.39;99380.44;5108019;28;20244;-60
2023/08/19 10:00:42;;;;;;;3.67;2.60;;;;;;;33.55;40.22;99385.31;5108766;28;20219;-60
2023/08/19 10:03:09;;;;;;;4.07;2.67;;;;;;;33.01;40.17;99380.06;5108373;28;20205;-61
2023/08/19 10:05:40;;;;;;;3.47;2.60;;;;;;;32.80;40.09;99379.06;5108364;28;20205;-62
2023/08/19 10:08:13;;;;;;;3.38;2.70;;;;;;;32.57;41.46;99380.13;5108312;28;20262;-61
2023/08/19 10:10:44;;;;;;;3.65;2.83;;;;;;;32.29;41.06;99375.78;5108135;28;20701;-61
2023/08/19 10:13:13;;;;;;;3.67;2.90;;;;;;;32.33;42.85;99374.28;5108317;28;20221;-61
2023/08/19 10:15:43;;;;;;;3.38;2.58;;;;;;;32.46;43.42;99373.91;5108047;28;20728;-61
2023/08/19 10:18:14;;;;;;;4.32;3.20;;;;;;;32.71;44.48;99364.66;5107846;28;20659;-62
2023/08/19 10:20:44;;;;;;;3.35;2.85;;;;;;;32.83;42.22;99373.25;5108970;28;20194;-61
2023/08/19 10:23:12;;;;;;;5.05;2.97;;;;;;;33.07;44.04;99368.47;5112142;28;20216;-61
2023/08/19 10:25:42;;;;;;;4.45;2.90;;;;;;;32.97;43.15;99363.06;5112275;28;20228;-62
2023/08/19 10:28:12;;;;;;;3.08;2.78;;;;;;;32.99;40.90;99372.38;5111727;28;20213;-62
2023/08/19 10:30:41;;;;;;;4.45;3.15;;;;;;;33.21;45.45;99363.56;5111866;28;20266;-61
2023/08/19 10:33:30;;;;;;;3.10;2.78;;;;;;;33.45;41.81;99374.59;5112050;28;20205;-61
2023/08/19 10:35:57;;;;;;;4.97;3.20;;;;;;;33.44;40.31;99365.84;5111691;28;20239;-62
2023/08/19 10:38:24;;;;;;;3.75;3.00;;;;;;;33.72;44.67;99363.97;5111319;28;20222;-62
2023/08/19 10:41:02;;;;;;;4.38;2.75;;;;;;;33.79;41.03;99364.53;5111650;28;20205;-62
2023/08/19 10:43:47;;;;;;;3.00;2.67;;;;;;;33.92;41.91;99353.47;5111488;28;20197;-62
2023/08/19 10:46:19;;;;;;;3.97;3.00;;;;;;;34.14;37.81;99360.47;5111549;28;20302;-62
2023/08/19 10:48:46;;;;;;;4.00;2.90;;;;;;;34.16;39.31;99361.81;5111639;28;20233;-62
2023/08/19 10:51:13;;;;;;;5.72;2.95;;;;;;;34.26;40.03;99363.72;5111404;28;20201;-62
2023/08/19 10:53:49;;;;;;;5.10;3.15;;;;;;;34.27;39.89;99354.72;5111237;28;20613;-62
2023/08/19 10:56:17;;;;;;;3.40;2.65;;;;;;;34.28;41.37;99361.59;5111715;28;20209;-62
2023/08/19 10:58:44;;;;;;;4.60;3.00;;;;;;;34.10;40.59;99365.50;5111132;28;20248;-61
2023/08/19 11:01:11;;;;;;;7.70;3.30;;;;;;;34.23;39.95;99364.22;5111851;28;20225;-62
2023/08/19 11:03:40;;;;;;;4.43;2.70;;;;;;;34.36;38.83;99355.78;5111155;28;20197;-62
2023/08/19 11:06:07;;;;;;;4.53;3.10;;;;;;;34.33;40.11;99358.97;5111470;28;20241;-59
2023/08/19 11:08:42;;;;;;;4.00;3.03;;;;;;;34.35;37.68;99356.84;5110964;28;20255;-61
2023/08/19 11:11:09;;;;;;;4.55;2.80;;;;;;;34.26;39.29;99355.75;5111309;28;20192;-62
2023/08/19 11:13:36;;;;;;;6.38;2.90;;;;;;;34.21;38.07;99356.53;5111413;28;20202;-62
2023/08/19 11:16:05;;;;;;;3.45;2.85;;;;;;;34.24;39.91;99353.38;5110805;28;20204;-62
2023/08/19 11:18:35;;;;;;;4.28;3.10;;;;;;;34.28;39.42;99350.97;5110750;28;20692;-62
2023/08/19 11:21:03;;;;;;;5.82;3.42;;;;;;;34.23;39.01;99345.66;5111091;27;20775;-62
2023/08/19 11:23:30;;;;;;;3.67;2.92;;;;;;;34.18;39.47;99345.63;5110873;28;20212;-62
2023/08/19 11:25:58;;;;;;;3.33;2.72;;;;;;;34.37;40.04;99343.31;5110614;28;20753;-62
2023/08/19 11:28:25;;;;;;;4.13;2.70;;;;;;;34.38;38.21;99344.91;5110483;28;20197;-62
2023/08/19 11:30:52;;;;;;;3.65;2.42;;;;;;;34.55;38.91;99340.19;5110470;28;20201;-62
2023/08/19 11:33:19;;;;;;;4.72;2.80;;;;;;;34.65;40.66;99339.44;5109424;28;20202;-62
2023/08/19 11:35:46;;;;;;;3.10;2.80;;;;;;;34.66;38.24;99341.03;5110485;28;20216;-62